Varanasi - Babatpur, India

5:35 AM IST on July 08, 2015 (GMT +0530)
Varanasi | | Change Station
CLOSE
Current Station
Airport
Location: Varanasi - Babatpur,
Elevation: 266 ft
Nearby Weather Stations

Elev 266 ft 25.45 °N, 82.86 °E | Updated 35 minutes ago

Haze
Haze
79 °F
Feels Like 79 °F
N
5
Wind Variable Wind from NNE

Today
High -- | Low -- °F
--% Chance of Precip.
Yesterday
High -- | Low -- °F
Precip. -- in
5:13 AM 6:53 PM
Waning Gibbous, 60% visible
Pressure 29.47 in
Visibility 1.9 miles
Clouds Scattered Clouds 2000 ft
Few 3000 ft
Mostly Cloudy 10000 ft
Dew Point 79 °F
Humidity 100%
Rainfall 0.00 in
Snow Depth Not available.
UV 0 out of 12
Pollen Not available.
Air Quality Not available.
Flu Activity Not available.
METAR VIBN 072330Z 02004KT 3000 HZ SCT020 FEW030CB BKN100 26/26 Q0998

More Conditions Fewer Conditions

Pressure 29.47 in
Visibility 1.9 miles
Clouds Scattered Clouds 2000 ft
Few 3000 ft
Mostly Cloudy 10000 ft
Dew Point 79 °F
Humidity 100%
Rainfall 0.00 in
Snow Depth Not available.
UV 0 out of 12
Pollen Not available.
Air Quality Not available.
Flu Activity Not available.
METAR VIBN 072330Z 02004KT 3000 HZ SCT020 FEW030CB BKN100 26/26 Q0998

More Conditions Fewer Conditions

10-Day Weather Forecast

×

Almanac

Astronomy

Jul. 08, 2015 Rise Set
Actual Time
Civil Twilight
Nautical Twilight
Astronomical Twilight
Moon
Length of Visible Light
Length of Day
Tomorrow will be .
, % of the Moon is Illuminated

Today's Extremes

Country Highs Country Lows

Community

WunderPhotos

Upload Photos

1,835,961 photos uploaded!

WunderBlogs® & News

Nearby

Air Quality

  Air Quality AQ Index Pollutant
Not available.

Snow Depth

Station Depth Elevation

Earthquake Activity

City Distance Mag. Time & Date
Minimum magnitude displayed is 2.5.

Coastal Water Temperatures

Place Temperature

Stations

Nearby Weather Stations

Station Location Temp. Windchill Dew Point Humidity Wind Precip. Elev Updated Type